sensor_id;sensor_type;location;lat;lon;timestamp;pressure;altitude;pressure_sealevel;temperature;humidity
62779;BME280;48821;48.796;2.396;2024-03-22T00:00:29;102233.44;;;15.61;58.97
62779;BME280;48821;48.796;2.396;2024-03-22T00:01:41;102237.94;;;15.59;58.97
62779;BME280;48821;48.796;2.396;2024-03-22T00:02:53;102229.09;;;15.59;58.88
62779;BME280;48821;48.796;2.396;2024-03-22T00:04:04;102236.97;;;15.62;58.74
62779;BME280;48821;48.796;2.396;2024-03-22T00:05:18;102239.63;;;15.62;58.89
62779;BME280;48821;48.796;2.396;2024-03-22T00:06:32;102239.63;;;15.62;58.74
62779;BME280;48821;48.796;2.396;2024-03-22T00:07:44;102236.16;;;15.60;58.73
62779;BME280;48821;48.796;2.396;2024-03-22T00:08:56;102232.72;;;15.56;58.89
62779;BME280;48821;48.796;2.396;2024-03-22T00:10:08;102227.56;;;15.51;58.70
62779;BME280;48821;48.796;2.396;2024-03-22T00:11:20;102237.13;;;15.57;58.78
62779;BME280;48821;48.796;2.396;2024-03-22T00:12:32;102240.66;;;15.56;58.97
62779;BME280;48821;48.796;2.396;2024-03-22T00:13:44;102238.06;;;15.55;58.72
62779;BME280;48821;48.796;2.396;2024-03-22T00:14:56;102246.84;;;15.57;58.85
62779;BME280;48821;48.796;2.396;2024-03-22T00:16:07;102239.84;;;15.54;59.05
62779;BME280;48821;48.796;2.396;2024-03-22T00:17:19;102250.31;;;15.59;58.97
62779;BME280;48821;48.796;2.396;2024-03-22T00:18:31;102241.53;;;15.57;58.80
62779;BME280;48821;48.796;2.396;2024-03-22T00:19:43;102241.53;;;15.57;58.85
62779;BME280;48821;48.796;2.396;2024-03-22T00:20:56;102235.38;;;15.56;58.88
62779;BME280;48821;48.796;2.396;2024-03-22T00:22:08;102239.72;;;15.59;58.88
62779;BME280;48821;48.796;2.396;2024-03-22T00:23:20;102241.53;;;15.57;58.56
62779;BME280;48821;48.796;2.396;2024-03-22T00:24:32;102236.25;;;15.57;58.79
62779;BME280;48821;48.796;2.396;2024-03-22T00:25:44;102244.09;;;15.60;58.70
62779;BME280;48821;48.796;2.396;2024-03-22T00:26:56;102241.50;;;15.58;58.75
62779;BME280;48821;48.796;2.396;2024-03-22T00:28:08;102238.03;;;15.56;58.72
62779;BME280;48821;48.796;2.396;2024-03-22T00:29:21;102232.78;;;15.55;58.32
62779;BME280;48821;48.796;2.396;2024-03-22T00:30:33;102235.44;;;15.55;58.93
62779;BME280;48821;48.796;2.396;2024-03-22T00:31:45;102240.72;;;15.55;58.75
62779;BME280;48821;48.796;2.396;2024-03-22T00:32:57;102238.94;;;15.55;58.89
62779;BME280;48821;48.796;2.396;2024-03-22T00:34:09;102233.81;;;15.49;58.84
62779;BME280;48821;48.796;2.396;2024-03-22T00:35:23;102231.97;;;15.51;59.07
62779;BME280;48821;48.796;2.396;2024-03-22T00:36:34;102231.97;;;15.52;58.86
62779;BME280;48821;48.796;2.396;2024-03-22T00:37:45;102229.31;;;15.52;58.76
62779;BME280;48821;48.796;2.396;2024-03-22T00:38:57;102224.91;;;15.51;58.84
62779;BME280;48821;48.796;2.396;2024-03-22T00:40:09;102211.75;;;15.48;58.60
62779;BME280;48821;48.796;2.396;2024-03-22T00:41:21;102224.91;;;15.51;58.91
62779;BME280;48821;48.796;2.396;2024-03-22T00:42:35;102216.09;;;15.51;58.95
62779;BME280;48821;48.796;2.396;2024-03-22T00:43:47;102216.00;;;15.54;58.92
62779;BME280;48821;48.796;2.396;2024-03-22T00:44:59;102210.69;;;15.54;58.78
62779;BME280;48821;48.796;2.396;2024-03-22T00:46:11;102204.53;;;15.53;59.10
62779;BME280;48821;48.796;2.396;2024-03-22T00:47:24;102205.41;;;15.54;59.04
62779;BME280;48821;48.796;2.396;2024-03-22T00:48:36;102209.81;;;15.53;58.77
62779;BME280;48821;48.796;2.396;2024-03-22T00:49:48;102214.28;;;15.53;58.65
62779;BME280;48821;48.796;2.396;2024-03-22T00:51:00;102200.31;;;15.48;58.89
62779;BME280;48821;48.796;2.396;2024-03-22T00:52:11;102197.66;;;15.48;58.88
62779;BME280;48821;48.796;2.396;2024-03-22T00:53:23;102195.03;;;15.46;59.59
62779;BME280;48821;48.796;2.396;2024-03-22T00:54:35;102191.53;;;15.46;58.76
62779;BME280;48821;48.796;2.396;2024-03-22T00:55:46;102200.34;;;15.46;59.00
62779;BME280;48821;48.796;2.396;2024-03-22T00:57:01;102195.97;;;15.45;59.26
62779;BME280;48821;48.796;2.396;2024-03-22T00:58:12;102193.34;;;15.44;59.08
62779;BME280;48821;48.796;2.396;2024-03-22T00:59:24;102194.31;;;15.41;59.27
62779;BME280;48821;48.796;2.396;2024-03-22T01:00:36;102192.59;;;15.40;59.31
62779;BME280;48821;48.796;2.396;2024-03-22T01:01:49;102196.13;;;15.39;59.14
62779;BME280;48821;48.796;2.396;2024-03-22T01:03:01;102200.56;;;15.38;59.18
62779;BME280;48821;48.796;2.396;2024-03-22T01:04:13;102205.00;;;15.38;59.46
62779;BME280;48821;48.796;2.396;2024-03-22T01:05:26;102202.44;;;15.35;59.41
62779;BME280;48821;48.796;2.396;2024-03-22T01:06:38;102204.22;;;15.34;59.70
62779;BME280;48821;48.796;2.396;2024-03-22T01:07:50;102201.72;;;15.29;59.67
62779;BME280;48821;48.796;2.396;2024-03-22T01:09:03;102192.03;;;15.28;59.75
62779;BME280;48821;48.796;2.396;2024-03-22T01:10:14;102197.38;;;15.27;59.64
62779;BME280;48821;48.796;2.396;2024-03-22T01:11:26;102191.25;;;15.25;59.67
62779;BME280;48821;48.796;2.396;2024-03-22T01:12:38;102201.91;;;15.23;59.70
62779;BME280;48821;48.796;2.396;2024-03-22T01:13:50;102201.91;;;15.23;59.71
62779;BME280;48821;48.796;2.396;2024-03-22T01:15:03;102192.28;;;15.21;59.85
62779;BME280;48821;48.796;2.396;2024-03-22T01:16:15;102196.75;;;15.18;59.93
62779;BME280;48821;48.796;2.396;2024-03-22T01:17:27;102197.72;;;15.16;60.04
62779;BME280;48821;48.796;2.396;2024-03-22T01:18:38;102194.13;;;15.17;59.97
62779;BME280;48821;48.796;2.396;2024-03-22T01:19:50;102185.41;;;15.13;60.01
62779;BME280;48821;48.796;2.396;2024-03-22T01:21:01;102188.09;;;15.12;59.88
62779;BME280;48821;48.796;2.396;2024-03-22T01:22:13;102187.28;;;15.10;60.11
62779;BME280;48821;48.796;2.396;2024-03-22T01:23:25;102189.94;;;15.10;59.86
62779;BME280;48821;48.796;2.396;2024-03-22T01:24:38;102184.72;;;15.06;59.94
62779;BME280;48821;48.796;2.396;2024-03-22T01:25:52;102186.53;;;15.04;60.09
62779;BME280;48821;48.796;2.396;2024-03-22T01:27:03;102181.34;;;15.01;60.53
62779;BME280;48821;48.796;2.396;2024-03-22T01:28:14;102190.13;;;15.02;60.50
62779;BME280;48821;48.796;2.396;2024-03-22T01:29:26;102175.25;;;14.98;60.64
62779;BME280;48821;48.796;2.396;2024-03-22T01:30:42;102181.44;;;14.98;60.50
62779;BME280;48821;48.796;2.396;2024-03-22T01:31:53;102177.97;;;14.96;60.55
62779;BME280;48821;48.796;2.396;2024-03-22T01:33:07;102184.22;;;14.93;60.68
62779;BME280;48821;48.796;2.396;2024-03-22T01:34:19;102179.88;;;14.91;60.50
62779;BME280;48821;48.796;2.396;2024-03-22T01:35:31;102178.13;;;14.90;60.63
62779;BME280;48821;48.796;2.396;2024-03-22T01:36:43;102174.69;;;14.84;60.67
62779;BME280;48821;48.796;2.396;2024-03-22T01:37:55;102181.81;;;14.84;60.64
62779;BME280;48821;48.796;2.396;2024-03-22T01:39:06;102181.81;;;14.84;60.83
62779;BME280;48821;48.796;2.396;2024-03-22T01:40:17;102180.09;;;14.81;60.83
62779;BME280;48821;48.796;2.396;2024-03-22T01:41:30;102173.13;;;14.77;60.86
62779;BME280;48821;48.796;2.396;2024-03-22T01:42:41;102174.09;;;14.74;61.11
62779;BME280;48821;48.796;2.396;2024-03-22T01:43:52;102177.66;;;14.73;61.36
62779;BME280;48821;48.796;2.396;2024-03-22T01:45:04;102171.56;;;14.71;61.05
62779;BME280;48821;48.796;2.396;2024-03-22T01:46:16;102174.19;;;14.71;61.18
62779;BME280;48821;48.796;2.396;2024-03-22T01:47:28;102172.56;;;14.66;61.35
62779;BME280;48821;48.796;2.396;2024-03-22T01:48:40;102168.19;;;14.65;61.19
62779;BME280;48821;48.796;2.396;2024-03-22T01:49:53;102172.63;;;14.64;61.30
62779;BME280;48821;48.796;2.396;2024-03-22T01:51:06;102168.28;;;14.61;61.55
62779;BME280;48821;48.796;2.396;2024-03-22T01:52:18;102163.97;;;14.57;61.36
62779;BME280;48821;48.796;2.396;2024-03-22T01:53:30;102164.91;;;14.56;61.63
62779;BME280;48821;48.796;2.396;2024-03-22T01:54:41;102163.16;;;14.55;61.70
62779;BME280;48821;48.796;2.396;2024-03-22T01:55:53;102159.69;;;14.53;61.87
62779;BME280;48821;48.796;2.396;2024-03-22T01:57:05;102160.56;;;14.54;61.76
62779;BME280;48821;48.796;2.396;2024-03-22T01:58:18;102155.41;;;14.47;61.68
62779;BME280;48821;48.796;2.396;2024-03-22T01:59:30;102152.75;;;14.47;61.97
62779;BME280;48821;48.796;2.396;2024-03-22T02:00:41;102151.94;;;14.45;61.51
62779;BME280;48821;48.796;2.396;2024-03-22T02:01:53;102146.72;;;14.42;61.73
62779;BME280;48821;48.796;2.396;2024-03-22T02:03:05;102151.16;;;14.42;62.00
62779;BME280;48821;48.796;2.396;2024-03-22T02:04:17;102147.72;;;14.38;61.76
62779;BME280;48821;48.796;2.396;2024-03-22T02:05:28;102142.50;;;14.36;61.87
62779;BME280;48821;48.796;2.396;2024-03-22T02:06:40;102145.16;;;14.35;62.26
62779;BME280;48821;48.796;2.396;2024-03-22T02:07:52;102151.38;;;14.34;62.32
62779;BME280;48821;48.796;2.396;2024-03-22T02:09:04;102160.19;;;14.34;62.27
62779;BME280;48821;48.796;2.396;2024-03-22T02:10:17;102154.09;;;14.31;61.93
62779;BME280;48821;48.796;2.396;2024-03-22T02:11:28;102148.88;;;14.27;62.08
62779;BME280;48821;48.796;2.396;2024-03-22T02:12:41;102148.91;;;14.26;61.99
62779;BME280;48821;48.796;2.396;2024-03-22T02:13:51;102146.31;;;14.24;62.31
62779;BME280;48821;48.796;2.396;2024-03-22T02:15:03;102153.34;;;14.25;62.34
62779;BME280;48821;48.796;2.396;2024-03-22T02:16:15;102149.91;;;14.22;62.33
62779;BME280;48821;48.796;2.396;2024-03-22T02:17:27;102151.75;;;14.20;62.46
62779;BME280;48821;48.796;2.396;2024-03-22T02:18:39;102157.03;;;14.20;62.76
62779;BME280;48821;48.796;2.396;2024-03-22T02:19:51;102150.03;;;14.17;62.77
62779;BME280;48821;48.796;2.396;2024-03-22T02:21:03;102147.41;;;14.17;62.63
62779;BME280;48821;48.796;2.396;2024-03-22T02:22:15;102147.53;;;14.11;62.40
62779;BME280;48821;48.796;2.396;2024-03-22T02:23:35;102151.88;;;14.13;62.67
62779;BME280;48821;48.796;2.396;2024-03-22T02:24:45;102144.03;;;14.10;62.62
62779;BME280;48821;48.796;2.396;2024-03-22T02:25:57;102145.81;;;14.10;62.98
62779;BME280;48821;48.796;2.396;2024-03-22T02:27:09;102151.13;;;14.08;63.19
62779;BME280;48821;48.796;2.396;2024-03-22T02:28:21;102143.31;;;14.03;62.62
62779;BME280;48821;48.796;2.396;2024-03-22T02:29:33;102143.34;;;14.02;63.04
62779;BME280;48821;48.796;2.396;2024-03-22T02:30:45;102147.72;;;14.04;63.06
62779;BME280;48821;48.796;2.396;2024-03-22T02:31:57;102145.19;;;14.00;62.97
62779;BME280;48821;48.796;2.396;2024-03-22T02:33:08;102146.91;;;14.01;63.06
62779;BME280;48821;48.796;2.396;2024-03-22T02:34:20;102139.91;;;14.00;62.81
62779;BME280;48821;48.796;2.396;2024-03-22T02:35:32;102145.19;;;13.98;63.39
62779;BME280;48821;48.796;2.396;2024-03-22T02:36:44;102138.22;;;13.95;63.11
62779;BME280;48821;48.796;2.396;2024-03-22T02:37:56;102139.09;;;13.96;63.12
62779;BME280;48821;48.796;2.396;2024-03-22T02:39:09;102138.22;;;13.95;63.23
62779;BME280;48821;48.796;2.396;2024-03-22T02:40:21;102127.75;;;13.92;63.52
62779;BME280;48821;48.796;2.396;2024-03-22T02:41:33;102126.88;;;13.92;63.52
62779;BME280;48821;48.796;2.396;2024-03-22T02:42:45;102126.88;;;13.90;63.38
62779;BME280;48821;48.796;2.396;2024-03-22T02:43:57;102124.25;;;13.90;63.39
62779;BME280;48821;48.796;2.396;2024-03-22T02:45:09;102116.41;;;13.87;63.36
62779;BME280;48821;48.796;2.396;2024-03-22T02:46:21;102106.81;;;13.83;63.68
62779;BME280;48821;48.796;2.396;2024-03-22T02:47:33;102108.63;;;13.81;63.58
62779;BME280;48821;48.796;2.396;2024-03-22T02:48:45;102109.44;;;13.83;63.60
62779;BME280;48821;48.796;2.396;2024-03-22T02:49:57;102114.72;;;13.84;63.66
62779;BME280;48821;48.796;2.396;2024-03-22T02:51:09;102104.22;;;13.81;63.29
62779;BME280;48821;48.796;2.396;2024-03-22T02:52:21;102106.84;;;13.81;63.82
62779;BME280;48821;48.796;2.396;2024-03-22T02:53:33;102109.53;;;13.80;63.34
62779;BME280;48821;48.796;2.396;2024-03-22T02:54:45;102110.44;;;13.79;63.87
62779;BME280;48821;48.796;2.396;2024-03-22T02:55:59;102106.84;;;13.81;63.65
62779;BME280;48821;48.796;2.396;2024-03-22T02:57:10;102100.78;;;13.78;63.93
62779;BME280;48821;48.796;2.396;2024-03-22T02:58:22;102108.63;;;13.81;63.77
62779;BME280;48821;48.796;2.396;2024-03-22T02:59:34;102112.13;;;13.81;63.93
62779;BME280;48821;48.796;2.396;2024-03-22T03:00:46;102110.38;;;13.80;63.89
62779;BME280;48821;48.796;2.396;2024-03-22T03:01:58;102098.97;;;13.78;63.75
62779;BME280;48821;48.796;2.396;2024-03-22T03:03:10;102108.72;;;13.78;63.86
62779;BME280;48821;48.796;2.396;2024-03-22T03:04:22;102098.16;;;13.78;63.86
62779;BME280;48821;48.796;2.396;2024-03-22T03:05:34;102105.16;;;13.79;63.92
62779;BME280;48821;48.796;2.396;2024-03-22T03:06:47;102100.78;;;13.78;63.80
62779;BME280;48821;48.796;2.396;2024-03-22T03:07:59;102099.94;;;13.76;64.10
62779;BME280;48821;48.796;2.396;2024-03-22T03:09:12;102100.84;;;13.75;63.88
62779;BME280;48821;48.796;2.396;2024-03-22T03:10:22;102099.94;;;13.76;64.14
62779;BME280;48821;48.796;2.396;2024-03-22T03:11:34;102101.75;;;13.73;64.03
62779;BME280;48821;48.796;2.396;2024-03-22T03:12:46;102091.25;;;13.70;64.17
62779;BME280;48821;48.796;2.396;2024-03-22T03:13:58;102099.16;;;13.70;64.08
62779;BME280;48821;48.796;2.396;2024-03-22T03:15:10;102093.03;;;13.70;63.78
62779;BME280;48821;48.796;2.396;2024-03-22T03:16:22;102088.69;;;13.67;64.18
62779;BME280;48821;48.796;2.396;2024-03-22T03:17:34;102086.13;;;13.64;64.09
62779;BME280;48821;48.796;2.396;2024-03-22T03:18:46;102093.97;;;13.67;63.97
62779;BME280;48821;48.796;2.396;2024-03-22T03:19:58;102091.41;;;13.64;64.18
62779;BME280;48821;48.796;2.396;2024-03-22T03:21:10;102082.66;;;13.62;64.23
62779;BME280;48821;48.796;2.396;2024-03-22T03:22:22;102082.66;;;13.62;64.24
62779;BME280;48821;48.796;2.396;2024-03-22T03:23:34;102094.16;;;13.59;64.19
62779;BME280;48821;48.796;2.396;2024-03-22T03:24:46;102081.84;;;13.58;64.16
62779;BME280;48821;48.796;2.396;2024-03-22T03:25:59;102080.13;;;13.56;64.13
62779;BME280;48821;48.796;2.396;2024-03-22T03:27:11;102083.69;;;13.55;64.15
62779;BME280;48821;48.796;2.396;2024-03-22T03:28:23;102081.97;;;13.52;64.00
62779;BME280;48821;48.796;2.396;2024-03-22T03:29:36;102086.34;;;13.53;64.17
62779;BME280;48821;48.796;2.396;2024-03-22T03:30:48;102086.38;;;13.52;64.38
62779;BME280;48821;48.796;2.396;2024-03-22T03:31:59;102085.56;;;13.49;64.57
62779;BME280;48821;48.796;2.396;2024-03-22T03:33:11;102079.44;;;13.47;64.77
62779;BME280;48821;48.796;2.396;2024-03-22T03:34:23;102075.09;;;13.45;64.37
62779;BME280;48821;48.796;2.396;2024-03-22T03:35:35;102071.63;;;13.43;64.62
62779;BME280;48821;48.796;2.396;2024-03-22T03:36:47;102069.00;;;13.41;64.58
62779;BME280;48821;48.796;2.396;2024-03-22T03:37:59;102071.69;;;13.39;64.53
62779;BME280;48821;48.796;2.396;2024-03-22T03:39:11;102070.81;;;13.39;64.30
62779;BME280;48821;48.796;2.396;2024-03-22T03:40:23;102061.19;;;13.38;64.79
62779;BME280;48821;48.796;2.396;2024-03-22T03:41:35;102069.09;;;13.38;64.35
62779;BME280;48821;48.796;2.396;2024-03-22T03:42:46;102067.34;;;13.37;64.42
62779;BME280;48821;48.796;2.396;2024-03-22T03:43:58;102056.84;;;13.34;64.55
62779;BME280;48821;48.796;2.396;2024-03-22T03:45:10;102067.41;;;13.34;64.57
62779;BME280;48821;48.796;2.396;2024-03-22T03:46:22;102063.97;;;13.32;64.86
62779;BME280;48821;48.796;2.396;2024-03-22T03:47:33;102063.97;;;13.32;64.63
62779;BME280;48821;48.796;2.396;2024-03-22T03:48:44;102058.72;;;13.28;64.50
62779;BME280;48821;48.796;2.396;2024-03-22T03:49:56;102062.31;;;13.27;64.37
62779;BME280;48821;48.796;2.396;2024-03-22T03:51:08;102061.44;;;13.27;64.81
62779;BME280;48821;48.796;2.396;2024-03-22T03:52:20;102063.25;;;13.25;64.71
62779;BME280;48821;48.796;2.396;2024-03-22T03:53:32;102065.00;;;13.26;64.95
62779;BME280;48821;48.796;2.396;2024-03-22T03:54:44;102057.97;;;13.25;64.78
62779;BME280;48821;48.796;2.396;2024-03-22T03:55:56;102065.06;;;13.23;64.62
62779;BME280;48821;48.796;2.396;2024-03-22T03:57:08;102061.59;;;13.21;64.89
62779;BME280;48821;48.796;2.396;2024-03-22T03:58:20;102057.16;;;13.21;64.40
62779;BME280;48821;48.796;2.396;2024-03-22T03:59:32;102056.31;;;13.19;65.09
62779;BME280;48821;48.796;2.396;2024-03-22T04:00:44;102053.72;;;13.18;64.71
62779;BME280;48821;48.796;2.396;2024-03-22T04:01:56;102047.63;;;13.15;64.86
62779;BME280;48821;48.796;2.396;2024-03-22T04:03:08;102046.75;;;13.15;64.90
62779;BME280;48821;48.796;2.396;2024-03-22T04:04:20;102041.47;;;13.15;64.86
62779;BME280;48821;48.796;2.396;2024-03-22T04:05:32;102044.09;;;13.15;64.77
62779;BME280;48821;48.796;2.396;2024-03-22T04:06:44;102046.75;;;13.15;64.67
62779;BME280;48821;48.796;2.396;2024-03-22T04:07:56;102039.81;;;13.11;64.72
62779;BME280;48821;48.796;2.396;2024-03-22T04:09:08;102043.28;;;13.13;64.97
62779;BME280;48821;48.796;2.396;2024-03-22T04:10:20;102036.34;;;13.09;65.19
62779;BME280;48821;48.796;2.396;2024-03-22T04:11:31;102038.88;;;13.12;65.14
62779;BME280;48821;48.796;2.396;2024-03-22T04:12:44;102036.34;;;13.09;64.84
62779;BME280;48821;48.796;2.396;2024-03-22T04:13:55;102031.13;;;13.05;65.10
62779;BME280;48821;48.796;2.396;2024-03-22T04:15:07;102034.59;;;13.08;65.20
62779;BME280;48821;48.796;2.396;2024-03-22T04:16:19;102027.66;;;13.03;65.21
62779;BME280;48821;48.796;2.396;2024-03-22T04:17:30;102027.66;;;13.03;65.37
62779;BME280;48821;48.796;2.396;2024-03-22T04:18:42;102025.91;;;13.02;65.01
62779;BME280;48821;48.796;2.396;2024-03-22T04:19:54;102029.44;;;13.01;64.97
62779;BME280;48821;48.796;2.396;2024-03-22T04:21:06;102032.94;;;13.03;64.96
62779;BME280;48821;48.796;2.396;2024-03-22T04:22:18;102045.25;;;13.03;65.09
62779;BME280;48821;48.796;2.396;2024-03-22T04:23:30;102034.81;;;12.98;64.97
62779;BME280;48821;48.796;2.396;2024-03-22T04:24:42;102033.03;;;12.99;65.02
62779;BME280;48821;48.796;2.396;2024-03-22T04:25:59;102037.41;;;13.00;65.31
62779;BME280;48821;48.796;2.396;2024-03-22T04:27:10;102031.31;;;12.96;65.24
62779;BME280;48821;48.796;2.396;2024-03-22T04:28:23;102029.56;;;12.95;65.25
62779;BME280;48821;48.796;2.396;2024-03-22T04:29:34;102024.38;;;12.92;65.23
62779;BME280;48821;48.796;2.396;2024-03-22T04:31:08;102035.72;;;12.96;65.36
62779;BME280;48821;48.796;2.396;2024-03-22T04:32:21;102029.63;;;12.92;65.21
62779;BME280;48821;48.796;2.396;2024-03-22T04:33:34;102026.16;;;12.90;65.11
62779;BME280;48821;48.796;2.396;2024-03-22T04:34:45;102028.84;;;12.88;64.92
62779;BME280;48821;48.796;2.396;2024-03-22T04:35:58;102030.56;;;12.89;65.36
62779;BME280;48821;48.796;2.396;2024-03-22T04:37:10;102027.97;;;12.88;65.36
62779;BME280;48821;48.796;2.396;2024-03-22T04:38:23;102024.56;;;12.82;65.34
62779;BME280;48821;48.796;2.396;2024-03-22T04:39:34;102029.78;;;12.86;65.52
62779;BME280;48821;48.796;2.396;2024-03-22T04:40:45;102032.50;;;12.82;65.08
62779;BME280;48821;48.796;2.396;2024-03-22T04:41:57;102026.44;;;12.79;65.54
62779;BME280;48821;48.796;2.396;2024-03-22T04:43:09;102029.03;;;12.80;65.35
62779;BME280;48821;48.796;2.396;2024-03-22T04:44:21;102028.19;;;12.77;65.15
62779;BME280;48821;48.796;2.396;2024-03-22T04:45:33;102028.25;;;12.75;65.56
62779;BME280;48821;48.796;2.396;2024-03-22T04:46:45;102026.47;;;12.76;65.31
62779;BME280;48821;48.796;2.396;2024-03-22T04:47:57;102030.09;;;12.71;65.32
62779;BME280;48821;48.796;2.396;2024-03-22T04:49:09;102027.47;;;12.70;65.52
62779;BME280;48821;48.796;2.396;2024-03-22T04:50:21;102027.47;;;12.70;65.44
62779;BME280;48821;48.796;2.396;2024-03-22T04:51:33;102021.41;;;12.66;65.41
62779;BME280;48821;48.796;2.396;2024-03-22T04:52:44;102030.16;;;12.67;65.82
62779;BME280;48821;48.796;2.396;2024-03-22T04:53:55;102034.66;;;12.63;65.51
62779;BME280;48821;48.796;2.396;2024-03-22T04:55:07;102029.38;;;12.63;65.91
62779;BME280;48821;48.796;2.396;2024-03-22T04:56:19;102028.56;;;12.59;65.39
62779;BME280;48821;48.796;2.396;2024-03-22T04:57:31;102021.56;;;12.58;65.58
62779;BME280;48821;48.796;2.396;2024-03-22T04:58:43;102029.50;;;12.57;65.72
62779;BME280;48821;48.796;2.396;2024-03-22T04:59:55;102021.66;;;12.54;65.57
62779;BME280;48821;48.796;2.396;2024-03-22T05:01:07;102026.00;;;12.56;65.60
62779;BME280;48821;48.796;2.396;2024-03-22T05:02:19;102019.97;;;12.51;65.73
62779;BME280;48821;48.796;2.396;2024-03-22T05:03:31;102030.50;;;12.51;65.63
62779;BME280;48821;48.796;2.396;2024-03-22T05:04:43;102027.88;;;12.49;65.58
62779;BME280;48821;48.796;2.396;2024-03-22T05:05:56;102030.50;;;12.49;65.96
62779;BME280;48821;48.796;2.396;2024-03-22T05:07:07;102023.56;;;12.45;65.90
62779;BME280;48821;48.796;2.396;2024-03-22T05:08:19;102024.44;;;12.46;65.98
62779;BME280;48821;48.796;2.396;2024-03-22T05:09:31;102022.69;;;12.45;65.92
62779;BME280;48821;48.796;2.396;2024-03-22T05:10:43;102015.66;;;12.45;65.73
62779;BME280;48821;48.796;2.396;2024-03-22T05:11:55;102016.59;;;12.43;66.12
62779;BME280;48821;48.796;2.396;2024-03-22T05:13:07;102014.88;;;12.42;66.03
62779;BME280;48821;48.796;2.396;2024-03-22T05:14:19;102010.50;;;12.41;66.25
62779;BME280;48821;48.796;2.396;2024-03-22T05:15:31;102016.66;;;12.40;65.89
62779;BME280;48821;48.796;2.396;2024-03-22T05:16:43;102006.16;;;12.38;65.93
62779;BME280;48821;48.796;2.396;2024-03-22T05:17:57;102015.75;;;12.41;65.80
62779;BME280;48821;48.796;2.396;2024-03-22T05:19:07;102010.53;;;12.37;66.08
62779;BME280;48821;48.796;2.396;2024-03-22T05:20:20;102010.53;;;12.37;66.18
62779;BME280;48821;48.796;2.396;2024-03-22T05:21:31;102023.72;;;12.37;66.08
62779;BME280;48821;48.796;2.396;2024-03-22T05:22:43;102022.00;;;12.36;66.04
62779;BME280;48821;48.796;2.396;2024-03-22T05:23:55;102020.25;;;12.37;66.33
62779;BME280;48821;48.796;2.396;2024-03-22T05:25:08;102022.00;;;12.36;65.91
62779;BME280;48821;48.796;2.396;2024-03-22T05:26:19;102023.78;;;12.36;66.14
62779;BME280;48821;48.796;2.396;2024-03-22T05:27:32;102020.31;;;12.32;66.03
62779;BME280;48821;48.796;2.396;2024-03-22T05:28:43;102017.72;;;12.31;66.20
62779;BME280;48821;48.796;2.396;2024-03-22T05:29:54;102023.00;;;12.31;66.01
62779;BME280;48821;48.796;2.396;2024-03-22T05:31:06;102027.34;;;12.33;66.01
62779;BME280;48821;48.796;2.396;2024-03-22T05:32:18;102025.63;;;12.31;66.14
62779;BME280;48821;48.796;2.396;2024-03-22T05:33:30;102024.75;;;12.32;66.19
62779;BME280;48821;48.796;2.396;2024-03-22T05:34:42;102029.19;;;12.30;66.18
62779;BME280;48821;48.796;2.396;2024-03-22T05:35:54;102010.78;;;12.26;66.33
62779;BME280;48821;48.796;2.396;2024-03-22T05:37:05;102023.03;;;12.29;66.29
62779;BME280;48821;48.796;2.396;2024-03-22T05:38:17;102020.38;;;12.29;66.39
62779;BME280;48821;48.796;2.396;2024-03-22T05:39:29;102009.91;;;12.26;66.39
62779;BME280;48821;48.796;2.396;2024-03-22T05:40:41;102009.91;;;12.26;66.20
62779;BME280;48821;48.796;2.396;2024-03-22T05:41:53;102016.03;;;12.26;66.17
62779;BME280;48821;48.796;2.396;2024-03-22T05:43:04;102012.50;;;12.27;66.35
62779;BME280;48821;48.796;2.396;2024-03-22T05:44:16;102013.41;;;12.25;65.94
62779;BME280;48821;48.796;2.396;2024-03-22T05:45:28;102009.03;;;12.25;66.11
62779;BME280;48821;48.796;2.396;2024-03-22T05:46:40;102018.69;;;12.26;66.42
62779;BME280;48821;48.796;2.396;2024-03-22T05:47:52;102004.66;;;12.24;66.47
62779;BME280;48821;48.796;2.396;2024-03-22T05:49:04;102002.09;;;12.21;66.50
62779;BME280;48821;48.796;2.396;2024-03-22T05:50:16;102000.31;;;12.22;66.31
62779;BME280;48821;48.796;2.396;2024-03-22T05:51:28;102002.97;;;12.22;66.52
62779;BME280;48821;48.796;2.396;2024-03-22T05:52:40;102006.47;;;12.21;66.49
62779;BME280;48821;48.796;2.396;2024-03-22T05:53:52;102005.59;;;12.20;66.54
62779;BME280;48821;48.796;2.396;2024-03-22T05:55:04;102010.00;;;12.21;66.26
62779;BME280;48821;48.796;2.396;2024-03-22T05:56:15;102011.75;;;12.21;66.65
62779;BME280;48821;48.796;2.396;2024-03-22T05:57:27;102004.75;;;12.20;66.56
62779;BME280;48821;48.796;2.396;2024-03-22T05:58:38;102014.38;;;12.21;66.35
62779;BME280;48821;48.796;2.396;2024-03-22T05:59:50;102009.13;;;12.21;66.59
62779;BME280;48821;48.796;2.396;2024-03-22T06:01:02;102004.81;;;12.17;66.69
62779;BME280;48821;48.796;2.396;2024-03-22T06:02:14;102008.34;;;12.15;66.40
62779;BME280;48821;48.796;2.396;2024-03-22T06:03:25;102010.91;;;12.19;66.46
62779;BME280;48821;48.796;2.396;2024-03-22T06:04:37;102011.81;;;12.18;66.66
62779;BME280;48821;48.796;2.396;2024-03-22T06:05:49;102010.97;;;12.15;66.51
62779;BME280;48821;48.796;2.396;2024-03-22T06:07:01;102003.09;;;12.12;66.83
62779;BME280;48821;48.796;2.396;2024-03-22T06:08:14;102003.09;;;12.12;66.51
62779;BME280;48821;48.796;2.396;2024-03-22T06:09:30;102006.63;;;12.13;66.77
62779;BME280;48821;48.796;2.396;2024-03-22T06:10:59;102009.28;;;12.11;67.03
62779;BME280;48821;48.796;2.396;2024-03-22T06:12:12;102015.38;;;12.15;66.79
62779;BME280;48821;48.796;2.396;2024-03-22T06:13:24;102011.94;;;12.10;66.91
62779;BME280;48821;48.796;2.396;2024-03-22T06:14:36;102016.25;;;12.12;66.94
62779;BME280;48821;48.796;2.396;2024-03-22T06:15:48;102013.69;;;12.09;66.96
62779;BME280;48821;48.796;2.396;2024-03-22T06:17:00;102008.41;;;12.11;67.19